Pagina principală
METAR-TAF:

METAR-TAF

Aeroporturi :

Chandler Regional Airport

Chandler, Oklahoma, Statele Unite ale Americii

Latitudine: 35-43-26N, longitudine: 096-49-13W, elevație: 300 m

Observații meteo curente

Raportul a fost făcut în urmă cu 34 de minute, la 04:15 UTC
Vânt 6 kt de la Sud-est
Temperatură 22°C
Umiditate 69%
Presiune 1014 hPa
Vizibilitate: 16.1 km
Cer senin

METAR: KCQB 190415Z AUTO 14006KT 10SM CLR 22/16 A2994 RMK AO2 T02160165

Ora: 23:49 (04:49 UTC)


TAF: lipsă

Observații și prognoze meteo pentru peste 4.000 de aeroporturi (rapoarte METAR și TAF).

Stațiile disponibile sunt reprezentate pe hartă prin puncte galbene și roșii.

Țineți indicatorul mouse-ului pe punctul dorit pentru a vedea denumirea stației.

Apoi, faceți clic pentru a vedea observațiile și prognozele meteorologice.

Pentru a schimba harta: Pentru mărire, faceți clic pe butoanele verzi cu cruce neagră; pentru micșorare, pe butonul verde cu o liniuță; pentru hărți învecinate, pe săgețile verzi.


METAR-TAF: